sensor_id;sensor_type;location;lat;lon;timestamp;pressure;altitude;pressure_sealevel;temperature;humidity
54854;BME280;40747;49.480;8.658;2023-07-08T00:02:22;100273.16;;;25.25;39.12
54854;BME280;40747;49.480;8.658;2023-07-08T00:04:47;100277.28;;;25.19;39.11
54854;BME280;40747;49.480;8.658;2023-07-08T00:07:15;100266.50;;;25.19;39.36
54854;BME280;40747;49.480;8.658;2023-07-08T00:09:43;100264.50;;;25.21;39.10
54854;BME280;40747;49.480;8.658;2023-07-08T00:12:10;100254.88;;;25.09;39.69
54854;BME280;40747;49.480;8.658;2023-07-08T00:14:36;100256.75;;;24.89;39.82
54854;BME280;40747;49.480;8.658;2023-07-08T00:17:01;100257.72;;;24.88;40.15
54854;BME280;40747;49.480;8.658;2023-07-08T00:19:27;100259.41;;;24.79;40.30
54854;BME280;40747;49.480;8.658;2023-07-08T00:21:52;100262.81;;;24.81;40.37
54854;BME280;40747;49.480;8.658;2023-07-08T00:24:17;100251.91;;;24.82;39.98
54854;BME280;40747;49.480;8.658;2023-07-08T00:26:43;100255.31;;;24.84;40.08
54854;BME280;40747;49.480;8.658;2023-07-08T00:29:09;100250.63;;;24.77;40.11
54854;BME280;40747;49.480;8.658;2023-07-08T00:31:38;100244.53;;;24.75;40.02
54854;BME280;40747;49.480;8.658;2023-07-08T00:34:03;100251.19;;;24.70;40.14
54854;BME280;40747;49.480;8.658;2023-07-08T00:36:29;100241.94;;;24.63;40.26
54854;BME280;40747;49.480;8.658;2023-07-08T00:38:56;100249.03;;;24.54;40.41
54854;BME280;40747;49.480;8.658;2023-07-08T00:41:26;100256.09;;;24.46;40.32
54854;BME280;40747;49.480;8.658;2023-07-08T00:43:56;100261.88;;;24.41;40.85
54854;BME280;40747;49.480;8.658;2023-07-08T00:51:32;100267.84;;;24.45;40.73
54854;BME280;40747;49.480;8.658;2023-07-08T00:53:57;100262.84;;;24.30;40.67
54854;BME280;40747;49.480;8.658;2023-07-08T00:56:26;100263.00;;;24.29;40.78
54854;BME280;40747;49.480;8.658;2023-07-08T00:58:58;100264.38;;;24.23;40.95
54854;BME280;40747;49.480;8.658;2023-07-08T01:01:25;100267.50;;;24.18;40.60
54854;BME280;40747;49.480;8.658;2023-07-08T01:03:57;100273.00;;;24.17;40.76
54854;BME280;40747;49.480;8.658;2023-07-08T01:06:27;100282.38;;;24.23;40.65
54854;BME280;40747;49.480;8.658;2023-07-08T01:08:57;100273.31;;;24.24;40.60
54854;BME280;40747;49.480;8.658;2023-07-08T01:11:23;100271.31;;;24.16;40.87
54854;BME280;40747;49.480;8.658;2023-07-08T01:13:49;100274.16;;;24.24;40.57
54854;BME280;40747;49.480;8.658;2023-07-08T01:16:16;100272.00;;;24.18;40.74
54854;BME280;40747;49.480;8.658;2023-07-08T01:18:42;100272.56;;;24.12;40.88
54854;BME280;40747;49.480;8.658;2023-07-08T01:24:14;100277.94;;;24.12;41.35
54854;BME280;40747;49.480;8.658;2023-07-08T01:26:42;100274.84;;;24.16;41.61
54854;BME280;40747;49.480;8.658;2023-07-08T01:29:09;100265.50;;;24.11;41.57
54854;BME280;40747;49.480;8.658;2023-07-08T01:31:35;100264.09;;;24.16;41.64
54854;BME280;40747;49.480;8.658;2023-07-08T01:34:01;100266.63;;;24.18;41.32
54854;BME280;40747;49.480;8.658;2023-07-08T01:36:30;100272.31;;;24.15;43.81
54854;BME280;40747;49.480;8.658;2023-07-08T01:38:56;100275.94;;;24.04;43.28
54854;BME280;40747;49.480;8.658;2023-07-08T01:41:22;100267.31;;;23.79;43.66
54854;BME280;40747;49.480;8.658;2023-07-08T01:43:47;100268.19;;;23.89;43.75
54854;BME280;40747;49.480;8.658;2023-07-08T01:46:17;100269.16;;;23.79;43.29
54854;BME280;40747;49.480;8.658;2023-07-08T01:48:48;100268.66;;;23.64;43.60
54854;BME280;40747;49.480;8.658;2023-07-08T01:51:14;100265.31;;;23.29;44.23
54854;BME280;40747;49.480;8.658;2023-07-08T01:53:42;100262.28;;;23.44;43.89
54854;BME280;40747;49.480;8.658;2023-07-08T01:56:09;100262.75;;;23.49;44.04
54854;BME280;40747;49.480;8.658;2023-07-08T01:58:35;100261.47;;;23.43;44.29
54854;BME280;40747;49.480;8.658;2023-07-08T02:01:01;100266.38;;;23.38;44.53
54854;BME280;40747;49.480;8.658;2023-07-08T02:03:27;100261.19;;;23.25;44.50
54854;BME280;40747;49.480;8.658;2023-07-08T02:05:52;100265.69;;;23.03;44.66
54854;BME280;40747;49.480;8.658;2023-07-08T02:08:18;100261.53;;;22.99;44.40
54854;BME280;40747;49.480;8.658;2023-07-08T02:10:49;100254.19;;;23.01;44.41
54854;BME280;40747;49.480;8.658;2023-07-08T02:13:15;100260.63;;;23.10;44.76
54854;BME280;40747;49.480;8.658;2023-07-08T02:15:40;100253.81;;;23.06;44.80
54854;BME280;40747;49.480;8.658;2023-07-08T02:18:05;100244.78;;;23.07;46.68
54854;BME280;40747;49.480;8.658;2023-07-08T02:20:30;100237.19;;;22.80;45.74
54854;BME280;40747;49.480;8.658;2023-07-08T02:22:56;100226.53;;;22.57;44.30
54854;BME280;40747;49.480;8.658;2023-07-08T02:25:21;100245.28;;;22.68;44.18
54854;BME280;40747;49.480;8.658;2023-07-08T02:27:46;100244.44;;;22.68;45.74
54854;BME280;40747;49.480;8.658;2023-07-08T02:30:11;100253.44;;;22.78;46.32
54854;BME280;40747;49.480;8.658;2023-07-08T02:32:37;100243.94;;;22.74;44.59
54854;BME280;40747;49.480;8.658;2023-07-08T02:35:05;100253.06;;;22.83;45.06
54854;BME280;40747;49.480;8.658;2023-07-08T02:37:30;100251.59;;;22.79;45.34
54854;BME280;40747;49.480;8.658;2023-07-08T02:39:56;100250.31;;;22.62;44.77
54854;BME280;40747;49.480;8.658;2023-07-08T02:42:21;100272.38;;;22.77;45.17
54854;BME280;40747;49.480;8.658;2023-07-08T02:44:46;100259.75;;;22.56;45.82
54854;BME280;40747;49.480;8.658;2023-07-08T02:47:12;100271.94;;;22.49;45.86
54854;BME280;40747;49.480;8.658;2023-07-08T02:49:37;100275.31;;;22.62;46.12
54854;BME280;40747;49.480;8.658;2023-07-08T02:52:03;100271.47;;;22.44;46.14
54854;BME280;40747;49.480;8.658;2023-07-08T02:54:28;100291.75;;;22.14;46.69
54854;BME280;40747;49.480;8.658;2023-07-08T02:56:53;100289.16;;;22.01;47.37
54854;BME280;40747;49.480;8.658;2023-07-08T02:59:19;100282.81;;;22.13;47.06
54854;BME280;40747;49.480;8.658;2023-07-08T03:01:44;100288.81;;;22.17;47.04
54854;BME280;40747;49.480;8.658;2023-07-08T03:04:12;100288.06;;;22.15;48.41
54854;BME280;40747;49.480;8.658;2023-07-08T03:06:44;100282.94;;;22.23;47.45
54854;BME280;40747;49.480;8.658;2023-07-08T03:09:11;100286.84;;;22.19;47.32
54854;BME280;40747;49.480;8.658;2023-07-08T03:11:37;100282.94;;;22.00;47.63
54854;BME280;40747;49.480;8.658;2023-07-08T03:14:04;100278.56;;;22.10;46.97
54854;BME280;40747;49.480;8.658;2023-07-08T03:16:29;100285.03;;;22.08;47.46
54854;BME280;40747;49.480;8.658;2023-07-08T03:18:55;100280.50;;;22.20;47.68
54854;BME280;40747;49.480;8.658;2023-07-08T03:21:20;100282.94;;;22.12;49.30
54854;BME280;40747;49.480;8.658;2023-07-08T03:23:47;100283.69;;;22.02;48.85
54854;BME280;40747;49.480;8.658;2023-07-08T03:26:19;100284.88;;;21.98;47.17
54854;BME280;40747;49.480;8.658;2023-07-08T03:28:45;100284.31;;;21.95;46.41
54854;BME280;40747;49.480;8.658;2023-07-08T03:31:11;100290.25;;;22.09;46.31
54854;BME280;40747;49.480;8.658;2023-07-08T03:33:36;100284.53;;;22.14;45.59
54854;BME280;40747;49.480;8.658;2023-07-08T03:36:03;100284.03;;;22.20;45.19
54854;BME280;40747;49.480;8.658;2023-07-08T03:38:29;100283.56;;;22.15;45.36
54854;BME280;40747;49.480;8.658;2023-07-08T03:40:54;100295.25;;;22.14;47.91
54854;BME280;40747;49.480;8.658;2023-07-08T03:43:20;100291.59;;;22.04;47.65
54854;BME280;40747;49.480;8.658;2023-07-08T03:45:46;100292.44;;;22.04;47.65
54854;BME280;40747;49.480;8.658;2023-07-08T03:48:12;100285.88;;;22.08;48.31
54854;BME280;40747;49.480;8.658;2023-07-08T03:50:37;100297.59;;;22.07;49.29
54854;BME280;40747;49.480;8.658;2023-07-08T03:53:03;100293.78;;;21.87;50.01
54854;BME280;40747;49.480;8.658;2023-07-08T03:55:29;100294.91;;;21.96;50.25
54854;BME280;40747;49.480;8.658;2023-07-08T03:57:54;100297.31;;;21.99;50.66
54854;BME280;40747;49.480;8.658;2023-07-08T04:00:19;100300.00;;;21.99;51.89
54854;BME280;40747;49.480;8.658;2023-07-08T04:02:46;100295.50;;;21.88;51.63
54854;BME280;40747;49.480;8.658;2023-07-08T04:05:18;100308.03;;;21.88;51.59
54854;BME280;40747;49.480;8.658;2023-07-08T04:07:45;100316.09;;;21.88;52.09
54854;BME280;40747;49.480;8.658;2023-07-08T04:10:11;100296.34;;;21.89;52.41
54854;BME280;40747;49.480;8.658;2023-07-08T04:12:38;100297.09;;;21.91;53.22
54854;BME280;40747;49.480;8.658;2023-07-08T04:15:04;100298.53;;;21.84;52.40
54854;BME280;40747;49.480;8.658;2023-07-08T04:17:30;100300.25;;;21.73;53.34
54854;BME280;40747;49.480;8.658;2023-07-08T04:19:55;100287.38;;;21.54;53.04
54854;BME280;40747;49.480;8.658;2023-07-08T04:22:31;100288.03;;;21.58;53.81
54854;BME280;40747;49.480;8.658;2023-07-08T04:24:56;100287.69;;;21.74;54.26
54854;BME280;40747;49.480;8.658;2023-07-08T04:27:21;100284.53;;;21.80;53.95
54854;BME280;40747;49.480;8.658;2023-07-08T04:29:47;100263.69;;;21.72;53.88
54854;BME280;40747;49.480;8.658;2023-07-08T04:32:13;100285.50;;;21.90;54.71
54854;BME280;40747;49.480;8.658;2023-07-08T04:34:38;100298.31;;;21.87;54.82
54854;BME280;40747;49.480;8.658;2023-07-08T04:37:03;100292.09;;;21.86;54.52
54854;BME280;40747;49.480;8.658;2023-07-08T04:39:30;100298.06;;;21.90;54.13
54854;BME280;40747;49.480;8.658;2023-07-08T04:41:56;100294.78;;;21.98;56.02
54854;BME280;40747;49.480;8.658;2023-07-08T04:44:21;100302.47;;;21.91;52.99
54854;BME280;40747;49.480;8.658;2023-07-08T04:46:55;100311.47;;;22.01;54.75
54854;BME280;40747;49.480;8.658;2023-07-08T04:49:23;100305.03;;;22.04;53.13
54854;BME280;40747;49.480;8.658;2023-07-08T04:51:49;100311.00;;;22.07;54.70
54854;BME280;40747;49.480;8.658;2023-07-08T04:54:15;100310.88;;;21.98;54.30
54854;BME280;40747;49.480;8.658;2023-07-08T04:56:42;100307.56;;;21.94;54.29
54854;BME280;40747;49.480;8.658;2023-07-08T04:59:13;100304.25;;;21.68;55.23
54854;BME280;40747;49.480;8.658;2023-07-08T05:01:39;100311.38;;;21.44;55.66
54854;BME280;40747;49.480;8.658;2023-07-08T05:04:05;100314.38;;;21.64;55.50
54854;BME280;40747;49.480;8.658;2023-07-08T05:06:31;100308.56;;;21.82;56.52
54854;BME280;40747;49.480;8.658;2023-07-08T05:08:58;100306.22;;;21.88;57.54
54854;BME280;40747;49.480;8.658;2023-07-08T05:11:23;100294.78;;;21.98;56.84
54854;BME280;40747;49.480;8.658;2023-07-08T05:13:49;100289.66;;;21.95;54.97
54854;BME280;40747;49.480;8.658;2023-07-08T05:16:14;100305.38;;;21.99;51.97
54854;BME280;40747;49.480;8.658;2023-07-08T05:18:39;100304.06;;;22.05;49.87
54854;BME280;40747;49.480;8.658;2023-07-08T05:21:05;100305.59;;;22.30;48.50
54854;BME280;40747;49.480;8.658;2023-07-08T05:23:30;100307.44;;;22.52;48.70
54854;BME280;40747;49.480;8.658;2023-07-08T05:25:59;100302.28;;;22.72;46.92
54854;BME280;40747;49.480;8.658;2023-07-08T05:28:25;100298.91;;;22.91;47.13
54854;BME280;40747;49.480;8.658;2023-07-08T05:30:54;100300.78;;;23.12;46.47
54854;BME280;40747;49.480;8.658;2023-07-08T05:33:21;100300.50;;;23.26;46.45
54854;BME280;40747;49.480;8.658;2023-07-08T05:35:46;100302.22;;;23.48;45.57
54854;BME280;40747;49.480;8.658;2023-07-08T05:38:11;100302.88;;;23.62;45.45
54854;BME280;40747;49.480;8.658;2023-07-08T05:40:37;100293.69;;;23.64;45.13
54854;BME280;40747;49.480;8.658;2023-07-08T05:43:02;100309.75;;;23.76;47.61
54854;BME280;40747;49.480;8.658;2023-07-08T05:45:28;100332.84;;;23.78;51.00
54854;BME280;40747;49.480;8.658;2023-07-08T05:47:53;100350.34;;;23.72;52.97
54854;BME280;40747;49.480;8.658;2023-07-08T05:50:18;100358.25;;;23.32;55.61
54854;BME280;40747;49.480;8.658;2023-07-08T05:52:43;100365.72;;;23.28;55.69
54854;BME280;40747;49.480;8.658;2023-07-08T05:55:09;100376.34;;;23.30;55.89
54854;BME280;40747;49.480;8.658;2023-07-08T05:57:34;100394.00;;;23.44;55.79
54854;BME280;40747;49.480;8.658;2023-07-08T05:59:59;100427.75;;;23.69;55.79
54854;BME280;40747;49.480;8.658;2023-07-08T06:02:25;100435.31;;;23.75;55.04
54854;BME280;40747;49.480;8.658;2023-07-08T06:04:51;100428.06;;;23.76;55.20
54854;BME280;40747;49.480;8.658;2023-07-08T06:07:16;100436.84;;;23.56;55.55
54854;BME280;40747;49.480;8.658;2023-07-08T06:09:42;100438.81;;;23.76;56.15
54854;BME280;40747;49.480;8.658;2023-07-08T06:12:07;100462.59;;;24.03;57.63
54854;BME280;40747;49.480;8.658;2023-07-08T06:14:33;100449.03;;;24.14;57.80
54854;BME280;40747;49.480;8.658;2023-07-08T06:16:58;100450.28;;;24.31;57.77
54854;BME280;40747;49.480;8.658;2023-07-08T06:19:24;100448.81;;;24.48;56.22
54854;BME280;40747;49.480;8.658;2023-07-08T06:21:49;100438.03;;;24.69;57.18
54854;BME280;40747;49.480;8.658;2023-07-08T06:24:14;100440.97;;;24.66;53.93
54854;BME280;40747;49.480;8.658;2023-07-08T06:26:39;100419.94;;;24.60;52.43
54854;BME280;40747;49.480;8.658;2023-07-08T06:29:05;100414.63;;;24.70;52.09
54854;BME280;40747;49.480;8.658;2023-07-08T06:31:30;100422.31;;;24.75;51.33
54854;BME280;40747;49.480;8.658;2023-07-08T06:33:56;100419.03;;;24.81;50.66
54854;BME280;40747;49.480;8.658;2023-07-08T06:36:21;100421.28;;;24.76;50.93
54854;BME280;40747;49.480;8.658;2023-07-08T06:38:47;100440.94;;;24.97;51.06
54854;BME280;40747;49.480;8.658;2023-07-08T06:41:13;100425.63;;;25.08;50.41
54854;BME280;40747;49.480;8.658;2023-07-08T06:43:38;100432.91;;;25.17;50.70
54854;BME280;40747;49.480;8.658;2023-07-08T06:46:03;100432.66;;;25.40;50.60
54854;BME280;40747;49.480;8.658;2023-07-08T06:48:29;100422.59;;;25.61;51.11
54854;BME280;40747;49.480;8.658;2023-07-08T06:50:56;100417.78;;;25.45;49.92
54854;BME280;40747;49.480;8.658;2023-07-08T06:53:21;100412.31;;;25.16;50.78
54854;BME280;40747;49.480;8.658;2023-07-08T06:55:47;100421.97;;;25.18;50.87
54854;BME280;40747;49.480;8.658;2023-07-08T06:58:12;100407.47;;;24.90;51.18
54854;BME280;40747;49.480;8.658;2023-07-08T07:00:37;100429.78;;;25.12;51.19
54854;BME280;40747;49.480;8.658;2023-07-08T07:03:03;100429.06;;;25.19;50.86
54854;BME280;40747;49.480;8.658;2023-07-08T07:05:28;100428.53;;;25.26;50.46
54854;BME280;40747;49.480;8.658;2023-07-08T07:07:53;100418.78;;;25.54;50.52
54854;BME280;40747;49.480;8.658;2023-07-08T07:10:19;100434.94;;;25.83;51.97
54854;BME280;40747;49.480;8.658;2023-07-08T07:12:45;100425.28;;;25.81;50.50
54854;BME280;40747;49.480;8.658;2023-07-08T07:15:10;100439.34;;;25.75;51.09
54854;BME280;40747;49.480;8.658;2023-07-08T07:17:35;100433.53;;;25.79;50.84
54854;BME280;40747;49.480;8.658;2023-07-08T07:20:01;100430.22;;;25.95;51.47
54854;BME280;40747;49.480;8.658;2023-07-08T07:22:27;100438.75;;;26.10;51.09
54854;BME280;40747;49.480;8.658;2023-07-08T07:24:53;100443.84;;;26.13;50.74
54854;BME280;40747;49.480;8.658;2023-07-08T07:27:19;100443.59;;;26.07;51.73
54854;BME280;40747;49.480;8.658;2023-07-08T07:29:47;100440.75;;;25.89;51.01
54854;BME280;40747;49.480;8.658;2023-07-08T07:32:13;100437.69;;;26.41;50.86
54854;BME280;40747;49.480;8.658;2023-07-08T07:34:40;100439.66;;;26.86;49.86
54854;BME280;40747;49.480;8.658;2023-07-08T07:37:06;100434.88;;;26.98;49.85
54854;BME280;40747;49.480;8.658;2023-07-08T07:39:35;100428.19;;;26.64;50.17
54854;BME280;40747;49.480;8.658;2023-07-08T07:42:00;100444.34;;;26.84;50.37
54854;BME280;40747;49.480;8.658;2023-07-08T07:44:26;100441.09;;;27.26;50.50
54854;BME280;40747;49.480;8.658;2023-07-08T07:46:52;100439.19;;;27.37;49.71
54854;BME280;40747;49.480;8.658;2023-07-08T07:49:18;100451.69;;;27.38;50.34
54854;BME280;40747;49.480;8.658;2023-07-08T07:51:44;100449.84;;;27.20;49.53
54854;BME280;40747;49.480;8.658;2023-07-08T07:54:09;100449.41;;;27.43;50.01
54854;BME280;40747;49.480;8.658;2023-07-08T07:56:35;100441.28;;;27.79;49.67
54854;BME280;40747;49.480;8.658;2023-07-08T07:59:00;100448.63;;;27.87;49.21
54854;BME280;40747;49.480;8.658;2023-07-08T08:01:25;100449.28;;;27.62;49.01
54854;BME280;40747;49.480;8.658;2023-07-08T08:03:50;100449.47;;;27.33;49.78
54854;BME280;40747;49.480;8.658;2023-07-08T08:06:16;100444.50;;;27.28;49.99
54854;BME280;40747;49.480;8.658;2023-07-08T08:08:44;100443.72;;;27.18;50.63
54854;BME280;40747;49.480;8.658;2023-07-08T08:11:10;100451.75;;;27.10;51.20
54854;BME280;40747;49.480;8.658;2023-07-08T08:13:35;100448.25;;;27.63;50.93
54854;BME280;40747;49.480;8.658;2023-07-08T08:16:00;100447.28;;;28.09;49.78
54854;BME280;40747;49.480;8.658;2023-07-08T08:18:26;100445.53;;;28.52;48.91
54854;BME280;40747;49.480;8.658;2023-07-08T08:20:51;100445.13;;;29.16;48.25
54854;BME280;40747;49.480;8.658;2023-07-08T08:23:16;100443.13;;;29.35;48.36
54854;BME280;40747;49.480;8.658;2023-07-08T08:25:42;100439.41;;;29.36;47.27
54854;BME280;40747;49.480;8.658;2023-07-08T08:28:07;100443.31;;;29.33;48.03
54854;BME280;40747;49.480;8.658;2023-07-08T08:30:32;100449.78;;;29.65;48.17
54854;BME280;40747;49.480;8.658;2023-07-08T08:32:59;100453.00;;;30.27;48.08
54854;BME280;40747;49.480;8.658;2023-07-08T08:35:26;100452.53;;;30.79;46.95
54854;BME280;40747;49.480;8.658;2023-07-08T08:37:52;100458.84;;;31.11;45.84
54854;BME280;40747;49.480;8.658;2023-07-08T08:40:19;100455.59;;;31.47;45.26
54854;BME280;40747;49.480;8.658;2023-07-08T08:42:51;100464.88;;;31.30;45.41
54854;BME280;40747;49.480;8.658;2023-07-08T08:45:19;100459.34;;;31.15;45.21
54854;BME280;40747;49.480;8.658;2023-07-08T08:47:49;100456.00;;;31.36;45.51
54854;BME280;40747;49.480;8.658;2023-07-08T08:50:32;100453.78;;;31.40;46.70
54854;BME280;40747;49.480;8.658;2023-07-08T08:53:02;100444.44;;;31.34;45.79
54854;BME280;40747;49.480;8.658;2023-07-08T08:55:29;100457.50;;;31.38;45.23
54854;BME280;40747;49.480;8.658;2023-07-08T09:01:02;100454.25;;;32.05;44.39
54854;BME280;40747;49.480;8.658;2023-07-08T09:03:50;100463.16;;;32.37;43.98
54854;BME280;40747;49.480;8.658;2023-07-08T09:06:21;100459.50;;;32.44;44.16
54854;BME280;40747;49.480;8.658;2023-07-08T09:08:49;100452.59;;;33.08;43.75
54854;BME280;40747;49.480;8.658;2023-07-08T09:13:58;100461.00;;;32.92;43.59
54854;BME280;40747;49.480;8.658;2023-07-08T09:16:39;100458.84;;;32.72;44.00
54854;BME280;40747;49.480;8.658;2023-07-08T09:19:14;100450.19;;;32.68;44.45
54854;BME280;40747;49.480;8.658;2023-07-08T09:22:03;100456.34;;;32.86;44.28
54854;BME280;40747;49.480;8.658;2023-07-08T09:24:44;100451.69;;;32.26;44.32
54854;BME280;40747;49.480;8.658;2023-07-08T09:27:12;100457.13;;;31.88;44.97
54854;BME280;40747;49.480;8.658;2023-07-08T09:29:37;100449.72;;;32.20;44.96
54854;BME280;40747;49.480;8.658;2023-07-08T09:32:24;100450.03;;;32.40;43.92
54854;BME280;40747;49.480;8.658;2023-07-08T09:34:54;100450.59;;;32.65;43.80
54854;BME280;40747;49.480;8.658;2023-07-08T09:37:21;100450.19;;;32.98;43.53
54854;BME280;40747;49.480;8.658;2023-07-08T09:39:46;100455.41;;;32.78;43.97
54854;BME280;40747;49.480;8.658;2023-07-08T09:42:13;100445.78;;;31.84;44.62
54854;BME280;40747;49.480;8.658;2023-07-08T09:44:40;100454.25;;;32.43;43.66
54854;BME280;40747;49.480;8.658;2023-07-08T09:47:26;100453.34;;;32.80;43.92
54854;BME280;40747;49.480;8.658;2023-07-08T09:49:58;100432.97;;;32.98;43.23
54854;BME280;40747;49.480;8.658;2023-07-08T09:52:28;100439.81;;;33.09;44.16
54854;BME280;40747;49.480;8.658;2023-07-08T09:54:54;100440.66;;;33.09;43.97
54854;BME280;40747;49.480;8.658;2023-07-08T09:57:30;100434.13;;;32.89;43.54
54854;BME280;40747;49.480;8.658;2023-07-08T10:00:03;100440.19;;;33.42;42.99
54854;BME280;40747;49.480;8.658;2023-07-08T10:02:39;100430.94;;;32.55;43.64
54854;BME280;40747;49.480;8.658;2023-07-08T10:05:16;100439.06;;;33.15;43.06
54854;BME280;40747;49.480;8.658;2023-07-08T10:07:44;100436.03;;;33.46;43.01
54854;BME280;40747;49.480;8.658;2023-07-08T10:10:15;100447.88;;;33.32;41.76
54854;BME280;40747;49.480;8.658;2023-07-08T10:12:42;100441.09;;;33.71;42.79
54854;BME280;40747;49.480;8.658;2023-07-08T10:15:34;100444.38;;;33.23;43.16
54854;BME280;40747;49.480;8.658;2023-07-08T10:18:01;100438.25;;;33.36;43.51
54854;BME280;40747;49.480;8.658;2023-07-08T10:20:37;100434.13;;;33.25;42.40
54854;BME280;40747;49.480;8.658;2023-07-08T10:26:26;100442.63;;;34.66;40.35
54854;BME280;40747;49.480;8.658;2023-07-08T10:29:22;100436.50;;;35.05;39.86
54854;BME280;40747;49.480;8.658;2023-07-08T10:34:46;100434.31;;;35.83;39.07
54854;BME280;40747;49.480;8.658;2023-07-08T10:45:39;100422.72;;;35.40;39.56
54854;BME280;40747;49.480;8.658;2023-07-08T10:48:40;100432.41;;;34.81;40.73
54854;BME280;40747;49.480;8.658;2023-07-08T10:51:28;100436.84;;;34.40;41.24
54854;BME280;40747;49.480;8.658;2023-07-08T10:54:10;100430.81;;;34.58;40.79
54854;BME280;40747;49.480;8.658;2023-07-08T11:02:15;100422.72;;;33.58;42.52
54854;BME280;40747;49.480;8.658;2023-07-08T11:07:52;100425.38;;;35.14;40.71
54854;BME280;40747;49.480;8.658;2023-07-08T11:10:29;100421.31;;;34.96;40.67
54854;BME280;40747;49.480;8.658;2023-07-08T11:13:06;100418.88;;;34.03;40.93
54854;BME280;40747;49.480;8.658;2023-07-08T11:21:07;100405.72;;;34.90;39.33
54854;BME280;40747;49.480;8.658;2023-07-08T11:23:38;100401.22;;;34.82;40.48
54854;BME280;40747;49.480;8.658;2023-07-08T11:28:46;100398.81;;;34.52;40.85
54854;BME280;40747;49.480;8.658;2023-07-08T11:31:12;100403.19;;;34.11;40.23
54854;BME280;40747;49.480;8.658;2023-07-08T11:33:40;100397.94;;;34.45;40.95
54854;BME280;40747;49.480;8.658;2023-07-08T11:36:07;100396.94;;;35.21;40.25
54854;BME280;40747;49.480;8.658;2023-07-08T11:38:33;100396.78;;;35.56;39.32
54854;BME280;40747;49.480;8.658;2023-07-08T11:41:11;100390.28;;;35.51;38.38
54854;BME280;40747;49.480;8.658;2023-07-08T11:43:46;100393.16;;;35.29;39.76
54854;BME280;40747;49.480;8.658;2023-07-08T11:46:21;100387.25;;;35.32;39.23
54854;BME280;40747;49.480;8.658;2023-07-08T11:48:49;100379.25;;;35.31;38.83
54854;BME280;40747;49.480;8.658;2023-07-08T11:51:22;100392.31;;;35.15;38.63
54854;BME280;40747;49.480;8.658;2023-07-08T11:54:19;100378.69;;;35.35;38.38
54854;BME280;40747;49.480;8.658;2023-07-08T11:56:57;100375.44;;;35.11;38.24
54854;BME280;40747;49.480;8.658;2023-07-08T11:59:25;100375.84;;;34.95;38.00
54854;BME280;40747;49.480;8.658;2023-07-08T12:02:03;100374.00;;;35.22;38.26
54854;BME280;40747;49.480;8.658;2023-07-08T12:04:34;100375.09;;;34.31;39.88
54854;BME280;40747;49.480;8.658;2023-07-08T12:07:10;100369.25;;;33.99;39.98
54854;BME280;40747;49.480;8.658;2023-07-08T12:09:44;100359.72;;;34.58;39.89
54854;BME280;40747;49.480;8.658;2023-07-08T12:12:17;100359.03;;;35.11;39.14
54854;BME280;40747;49.480;8.658;2023-07-08T12:14:44;100345.13;;;35.06;38.54
54854;BME280;40747;49.480;8.658;2023-07-08T12:17:14;100335.88;;;35.34;38.94
54854;BME280;40747;49.480;8.658;2023-07-08T12:19:42;100346.66;;;35.56;37.95
54854;BME280;40747;49.480;8.658;2023-07-08T12:22:10;100355.91;;;35.62;38.42
54854;BME280;40747;49.480;8.658;2023-07-08T12:24:37;100360.06;;;35.10;38.42
54854;BME280;40747;49.480;8.658;2023-07-08T12:27:03;100355.03;;;34.45;39.88
54854;BME280;40747;49.480;8.658;2023-07-08T12:29:28;100358.50;;;34.74;39.17
54854;BME280;40747;49.480;8.658;2023-07-08T12:31:53;100347.66;;;35.01;38.87
54854;BME280;40747;49.480;8.658;2023-07-08T12:34:20;100363.88;;;35.16;39.24
54854;BME280;40747;49.480;8.658;2023-07-08T12:36:49;100352.19;;;34.74;38.94
54854;BME280;40747;49.480;8.658;2023-07-08T12:39:16;100361.34;;;33.83;40.36
54854;BME280;40747;49.480;8.658;2023-07-08T12:41:43;100368.88;;;34.44;40.48
54854;BME280;40747;49.480;8.658;2023-07-08T12:44:23;100366.53;;;34.83;39.17
54854;BME280;40747;49.480;8.658;2023-07-08T12:46:53;100355.50;;;34.56;39.27
54854;BME280;40747;49.480;8.658;2023-07-08T12:49:19;100343.53;;;34.70;39.18
54854;BME280;40747;49.480;8.658;2023-07-08T12:51:45;100352.69;;;34.91;39.32
54854;BME280;40747;49.480;8.658;2023-07-08T12:54:11;100358.19;;;35.18;38.82
54854;BME280;40747;49.480;8.658;2023-07-08T12:56:38;100361.31;;;35.01;38.75
54854;BME280;40747;49.480;8.658;2023-07-08T12:59:05;100354.25;;;34.58;39.10
54854;BME280;40747;49.480;8.658;2023-07-08T13:01:33;100353.03;;;34.74;38.94
54854;BME280;40747;49.480;8.658;2023-07-08T13:04:02;100358.09;;;34.77;39.09
54854;BME280;40747;49.480;8.658;2023-07-08T13:06:32;100359.19;;;34.90;39.09
54854;BME280;40747;49.480;8.658;2023-07-08T13:11:44;100360.53;;;34.52;38.52
54854;BME280;40747;49.480;8.658;2023-07-08T13:14:12;100361.09;;;34.41;39.48
54854;BME280;40747;49.480;8.658;2023-07-08T13:16:39;100363.00;;;34.40;40.13
54854;BME280;40747;49.480;8.658;2023-07-08T13:19:06;100357.44;;;34.75;39.40
54854;BME280;40747;49.480;8.658;2023-07-08T13:21:33;100355.31;;;34.64;38.74
54854;BME280;40747;49.480;8.658;2023-07-08T13:23:59;100356.31;;;34.50;40.18
54854;BME280;40747;49.480;8.658;2023-07-08T13:26:28;100349.00;;;34.63;39.47
54854;BME280;40747;49.480;8.658;2023-07-08T13:29:01;100343.03;;;34.46;39.49
54854;BME280;40747;49.480;8.658;2023-07-08T13:31:34;100343.34;;;34.72;38.92
54854;BME280;40747;49.480;8.658;2023-07-08T13:34:09;100343.75;;;34.27;40.78
54854;BME280;40747;49.480;8.658;2023-07-08T13:36:42;100349.44;;;34.67;39.51
54854;BME280;40747;49.480;8.658;2023-07-08T13:39:12;100343.53;;;34.63;38.72
54854;BME280;40747;49.480;8.658;2023-07-08T13:41:43;100342.38;;;34.93;39.54
54854;BME280;40747;49.480;8.658;2023-07-08T13:44:09;100336.69;;;34.94;38.80